Time;durP1;ratioP1;P1;durP2;ratioP2;P2;SDS_P1;SDS_P2;PMS_P1;PMS_P2;Temp;Humidity;BMP_temperature;BMP_pressure;BME280_temperature;BME280_humidity;BME280_pressure;Samples;Min_cycle;Max_cycle;Signal;HPM_P1;HPM_P2
2022/11/10 00:00:56;;;;;;;5.68;1.80;;;11.10;99.90;;;;;;4998413;28;20201;-64
2022/11/10 00:03:23;;;;;;;4.32;1.73;;;11.10;99.90;;;;;;5028926;28;20226;-64
2022/11/10 00:05:49;;;;;;;6.30;1.73;;;11.10;99.90;;;;;;5028085;28;20221;-64
2022/11/10 00:08:16;;;;;;;4.70;1.65;;;11.10;99.90;;;;;;5000032;28;20219;-64
2022/11/10 00:13:34;;;;;;;4.07;1.50;;;11.00;99.90;;;;;;5008868;28;20221;-64
2022/11/10 00:18:46;;;;;;;4.95;1.58;;;11.00;99.90;;;;;;5007316;28;20212;-64
2022/11/10 00:21:14;;;;;;;6.82;1.92;;;11.00;99.90;;;;;;5034609;28;20673;-64
2022/11/10 00:23:41;;;;;;;4.00;1.50;;;10.90;99.90;;;;;;4992159;28;21170;-64
2022/11/10 00:26:13;;;;;;;6.03;1.60;;;11.00;99.90;;;;;;5013478;28;20609;-64
2022/11/10 00:28:41;;;;;;;4.90;1.70;;;10.90;99.90;;;;;;5010181;28;20355;-64
2022/11/10 00:31:09;;;;;;;3.78;1.55;;;10.90;99.90;;;;;;5013799;28;20205;-64
2022/11/10 00:33:36;;;;;;;6.13;1.60;;;10.90;99.90;;;;;;5001576;28;20208;-65
2022/11/10 00:36:04;;;;;;;7.68;1.83;;;10.80;99.90;;;;;;5027223;28;20197;-64
2022/11/10 00:38:31;;;;;;;4.28;1.50;;;10.90;99.90;;;;;;5001619;28;20225;-64
2022/11/10 00:40:59;;;;;;;5.30;1.92;;;10.90;99.90;;;;;;5012627;28;20292;-64
2022/11/10 00:43:26;;;;;;;7.22;1.73;;;10.90;99.90;;;;;;5016782;28;20623;-64
2022/11/10 00:45:55;;;;;;;4.43;1.52;;;10.90;99.90;;;;;;5010043;28;20224;-64
2022/11/10 00:48:22;;;;;;;5.03;2.00;;;10.90;99.90;;;;;;5010889;28;20225;-64
2022/11/10 00:50:49;;;;;;;3.92;1.95;;;10.90;99.90;;;;;;5020379;28;20293;-64
2022/11/10 00:53:17;;;;;;;5.20;1.90;;;10.90;99.90;;;;;;5028220;28;20194;-63
2022/11/10 00:55:43;;;;;;;9.13;2.38;;;10.80;99.90;;;;;;4988141;28;20580;-64
2022/11/10 00:58:10;;;;;;;4.28;2.00;;;10.80;99.90;;;;;;5024607;28;20209;-64
2022/11/10 01:00:37;;;;;;;8.05;2.25;;;10.80;99.90;;;;;;4993037;28;20205;-64
2022/11/10 01:03:05;;;;;;;3.90;2.42;;;10.80;99.90;;;;;;5014386;28;20205;-64
2022/11/10 01:05:36;;;;;;;5.13;2.28;;;10.80;99.90;;;;;;5003507;28;20226;-64
2022/11/10 01:08:03;;;;;;;7.18;2.60;;;10.80;99.90;;;;;;5019864;28;20217;-64
2022/11/10 01:10:30;;;;;;;5.18;2.65;;;10.80;99.90;;;;;;4981150;28;20993;-64
2022/11/10 01:12:57;;;;;;;7.45;2.55;;;10.80;99.90;;;;;;5021829;28;20202;-64
2022/11/10 01:15:24;;;;;;;5.13;2.33;;;10.80;99.90;;;;;;5006498;28;20209;-65
2022/11/10 01:17:51;;;;;;;8.00;2.85;;;10.80;99.90;;;;;;5009872;28;20209;-65
2022/11/10 01:20:19;;;;;;;4.25;2.42;;;10.80;99.90;;;;;;5011845;28;20204;-64
2022/11/10 01:22:46;;;;;;;8.20;2.47;;;10.80;99.90;;;;;;5010170;28;20232;-64
2022/11/10 01:25:13;;;;;;;7.35;2.67;;;10.70;99.90;;;;;;4994042;28;20221;-64
2022/11/10 01:27:40;;;;;;;8.40;2.60;;;10.70;99.90;;;;;;5016614;28;20868;-65
2022/11/10 01:30:07;;;;;;;9.45;2.65;;;10.70;99.90;;;;;;5011138;28;20224;-64
2022/11/10 01:32:34;;;;;;;8.90;2.90;;;10.70;99.90;;;;;;5021669;28;20699;-65
2022/11/10 01:35:01;;;;;;;6.25;2.70;;;10.80;99.90;;;;;;5005116;28;20775;-65
2022/11/10 01:37:29;;;;;;;7.82;2.58;;;10.80;99.90;;;;;;5009894;28;20215;-65
2022/11/10 01:39:56;;;;;;;6.65;2.30;;;10.80;99.90;;;;;;5011955;28;20714;-65
2022/11/10 01:42:25;;;;;;;13.43;2.88;;;11.00;99.90;;;;;;5000193;28;20295;-65
2022/11/10 01:45:26;;;;;;;11.98;3.70;;;10.80;99.90;;;;;;5023004;28;20747;-64
2022/11/10 01:47:56;;;;;;;7.93;2.92;;;10.90;99.90;;;;;;5025230;28;20197;-64
2022/11/10 01:50:25;;;;;;;7.03;3.00;;;11.00;99.90;;;;;;5002962;28;23715;-64
2022/11/10 01:52:58;;;;;;;8.60;3.50;;;10.90;99.90;;;;;;5018838;28;20202;-64
2022/11/10 01:55:26;;;;;;;11.57;3.13;;;10.90;99.90;;;;;;5021717;28;20202;-64
2022/11/10 01:57:53;;;;;;;6.88;3.45;;;10.90;99.90;;;;;;4989996;28;20224;-64
2022/11/10 02:00:21;;;;;;;6.72;2.97;;;10.90;99.90;;;;;;5015749;28;20209;-64
2022/11/10 02:02:52;;;;;;;6.70;3.50;;;10.90;99.90;;;;;;5024209;28;20219;-64
2022/11/10 02:05:20;;;;;;;11.30;3.50;;;10.90;99.90;;;;;;5000351;28;20225;-65
2022/11/10 02:07:47;;;;;;;10.18;3.05;;;10.80;99.90;;;;;;5021212;28;20381;-65
2022/11/10 02:10:17;;;;;;;4.38;2.28;;;10.80;99.90;;;;;;5019497;28;20198;-65
2022/11/10 02:12:44;;;;;;;6.57;2.40;;;10.70;99.90;;;;;;4996952;28;20209;-65
2022/11/10 02:15:13;;;;;;;6.38;2.90;;;10.60;99.90;;;;;;5001096;28;21175;-65
2022/11/10 02:17:41;;;;;;;7.57;2.90;;;10.60;99.90;;;;;;5024732;28;20726;-64
2022/11/10 02:20:11;;;;;;;7.93;2.90;;;10.50;99.90;;;;;;5004738;28;20201;-65
2022/11/10 02:22:39;;;;;;;7.75;2.95;;;10.50;99.90;;;;;;5022035;28;20710;-65
2022/11/10 02:25:07;;;;;;;5.18;3.03;;;10.50;99.90;;;;;;5021022;28;20233;-64
2022/11/10 02:27:34;;;;;;;5.35;3.65;;;10.40;99.90;;;;;;4998593;28;20209;-64
2022/11/10 02:30:02;;;;;;;9.20;3.65;;;10.40;99.90;;;;;;5002744;28;20202;-64
2022/11/10 02:32:29;;;;;;;6.75;2.97;;;10.30;99.90;;;;;;5016881;28;20190;-65
2022/11/10 02:34:56;;;;;;;9.20;3.40;;;10.30;99.90;;;;;;5014157;28;20213;-64
2022/11/10 02:37:22;;;;;;;7.18;3.67;;;10.30;99.90;;;;;;5012229;28;20202;-64
2022/11/10 02:39:50;;;;;;;6.32;3.15;;;10.30;99.90;;;;;;5021783;28;20228;-64
2022/11/10 02:42:17;;;;;;;11.13;3.97;;;10.30;99.90;;;;;;4997431;28;21395;-64
2022/11/10 02:44:44;;;;;;;7.82;4.22;;;10.30;99.90;;;;;;5001766;28;21426;-64
2022/11/10 02:47:11;;;;;;;9.82;4.43;;;10.30;99.90;;;;;;5013313;28;20693;-64
2022/11/10 02:49:37;;;;;;;10.05;4.70;;;10.30;99.90;;;;;;5026819;28;20677;-65
2022/11/10 02:52:05;;;;;;;13.45;4.65;;;10.20;99.90;;;;;;5012749;28;22924;-64
2022/11/10 02:54:31;;;;;;;6.90;4.43;;;10.20;99.90;;;;;;5026764;28;20206;-64
2022/11/10 02:57:01;;;;;;;7.38;4.47;;;10.20;99.90;;;;;;5014783;28;20219;-64
2022/11/10 02:59:28;;;;;;;8.68;4.88;;;10.20;99.90;;;;;;4986713;28;20221;-64
2022/11/10 03:01:55;;;;;;;9.77;4.72;;;10.20;99.90;;;;;;5000571;28;20206;-65
2022/11/10 03:04:22;;;;;;;7.45;4.25;;;10.20;99.90;;;;;;5023828;28;20225;-64
2022/11/10 03:06:49;;;;;;;8.48;4.53;;;10.20;99.90;;;;;;5024066;28;20193;-64
2022/11/10 03:09:15;;;;;;;9.88;5.13;;;10.20;99.90;;;;;;5012922;28;20205;-64
2022/11/10 03:11:42;;;;;;;10.13;4.68;;;10.20;99.90;;;;;;5017288;28;20206;-65
2022/11/10 03:14:10;;;;;;;10.68;4.00;;;10.20;99.90;;;;;;5003832;28;20930;-65
2022/11/10 03:16:37;;;;;;;11.48;4.30;;;10.20;99.90;;;;;;5010972;28;20240;-64
2022/11/10 03:19:04;;;;;;;13.60;5.00;;;10.20;99.90;;;;;;5013099;28;20494;-65
2022/11/10 03:21:31;;;;;;;9.70;4.57;;;10.20;99.90;;;;;;5020320;28;20209;-65
2022/11/10 03:23:57;;;;;;;10.68;4.97;;;10.20;99.90;;;;;;5009993;28;20233;-64
2022/11/10 03:26:24;;;;;;;11.13;5.05;;;10.20;99.90;;;;;;5030109;28;20233;-64
2022/11/10 03:28:52;;;;;;;15.10;4.97;;;10.10;99.90;;;;;;5000719;28;20208;-65
2022/11/10 03:31:20;;;;;;;16.58;5.18;;;10.10;99.90;;;;;;5019218;28;20236;-64
2022/11/10 03:33:47;;;;;;;13.40;4.60;;;10.10;99.90;;;;;;5016518;28;20205;-65
2022/11/10 03:36:14;;;;;;;8.35;4.47;;;10.10;99.90;;;;;;5025875;28;20213;-64
2022/11/10 03:38:40;;;;;;;7.60;4.38;;;10.10;99.90;;;;;;5017560;28;20198;-64
2022/11/10 03:41:07;;;;;;;10.80;4.80;;;10.10;99.90;;;;;;5018537;28;20193;-64
2022/11/10 03:43:34;;;;;;;11.40;4.88;;;10.10;99.90;;;;;;5025812;28;20200;-64
2022/11/10 03:46:01;;;;;;;8.15;4.38;;;10.10;99.90;;;;;;4987740;28;20232;-65
2022/11/10 03:48:29;;;;;;;9.88;4.78;;;10.10;99.90;;;;;;5018569;28;20786;-65
2022/11/10 03:50:56;;;;;;;10.40;3.97;;;10.10;99.90;;;;;;5017981;28;20216;-64
2022/11/10 03:53:22;;;;;;;9.85;4.65;;;10.10;99.90;;;;;;5018951;28;20359;-64
2022/11/10 03:55:49;;;;;;;5.88;4.00;;;10.00;99.90;;;;;;5015124;28;20201;-64
2022/11/10 03:58:16;;;;;;;11.48;4.70;;;10.00;99.90;;;;;;5026849;28;20206;-64
2022/11/10 04:00:43;;;;;;;9.43;4.68;;;10.00;99.90;;;;;;4995605;28;20206;-64
2022/11/10 04:03:10;;;;;;;13.75;4.75;;;10.00;99.90;;;;;;5023995;28;20198;-64
2022/11/10 04:11:07;;;;;;;10.65;3.92;;;10.00;99.90;;;;;;5013247;28;20208;-64
2022/11/10 04:16:18;;;;;;;8.20;3.72;;;10.10;99.90;;;;;;4989966;28;20274;-65
2022/11/10 04:18:45;;;;;;;9.50;3.90;;;10.10;99.90;;;;;;5024027;28;20212;-64
2022/11/10 04:21:13;;;;;;;11.10;4.45;;;10.10;99.90;;;;;;5016307;28;20205;-64
2022/11/10 04:23:40;;;;;;;8.98;3.28;;;10.10;99.90;;;;;;5021226;28;20224;-64
2022/11/10 04:28:55;;;;;;;10.18;4.10;;;10.20;99.90;;;;;;5028262;28;20218;-64
2022/11/10 04:31:23;;;;;;;7.55;3.97;;;10.10;99.90;;;;;;4988427;28;21843;-64
2022/11/10 04:33:50;;;;;;;9.15;4.65;;;10.10;99.90;;;;;;5027162;28;20201;-64
2022/11/10 04:36:20;;;;;;;9.18;4.45;;;10.10;99.90;;;;;;5011189;28;20216;-64
2022/11/10 04:38:47;;;;;;;11.77;4.20;;;10.10;99.90;;;;;;5016619;28;20210;-64
2022/11/10 04:41:15;;;;;;;8.45;4.50;;;10.00;99.90;;;;;;4986354;28;20993;-65
2022/11/10 04:43:42;;;;;;;7.82;4.30;;;10.10;99.90;;;;;;5021738;28;20213;-64
2022/11/10 04:46:19;;;;;;;9.05;4.40;;;10.10;99.90;;;;;;5014145;28;20264;-64
2022/11/10 04:48:46;;;;;;;6.30;3.92;;;10.10;99.90;;;;;;5000096;28;20702;-65
2022/11/10 04:51:14;;;;;;;15.02;4.88;;;10.10;99.90;;;;;;5014372;28;20572;-65
2022/11/10 04:53:42;;;;;;;11.18;4.30;;;10.10;99.90;;;;;;5025249;28;20256;-64
2022/11/10 04:56:11;;;;;;;7.75;3.38;;;10.10;99.90;;;;;;5011378;28;20207;-65
2022/11/10 04:58:38;;;;;;;11.40;4.32;;;10.10;99.90;;;;;;5024646;28;20232;-64
2022/11/10 05:01:07;;;;;;;8.50;4.55;;;10.10;99.90;;;;;;5019895;28;20198;-64
2022/11/10 05:03:34;;;;;;;13.55;3.92;;;10.10;99.90;;;;;;4950488;28;20209;-65
2022/11/10 05:06:00;;;;;;;9.52;4.10;;;10.10;99.90;;;;;;5015321;28;20248;-64
2022/11/10 05:08:27;;;;;;;12.35;4.35;;;10.10;99.90;;;;;;5005574;28;20198;-65
2022/11/10 05:10:56;;;;;;;11.35;4.63;;;10.10;99.90;;;;;;5003521;28;20226;-64
2022/11/10 05:13:23;;;;;;;10.52;3.92;;;10.10;99.90;;;;;;5020573;28;20327;-64
2022/11/10 05:15:50;;;;;;;11.15;4.60;;;10.10;99.90;;;;;;5027091;28;20229;-64
2022/11/10 05:18:17;;;;;;;11.38;4.20;;;10.10;99.90;;;;;;4997457;28;20212;-64
2022/11/10 05:20:44;;;;;;;11.25;4.95;;;10.10;99.90;;;;;;5008662;28;21060;-64
2022/11/10 05:25:57;;;;;;;15.38;5.30;;;10.20;99.90;;;;;;4986868;28;20333;-63
2022/11/10 05:28:24;;;;;;;15.07;5.65;;;10.20;99.90;;;;;;4992516;28;20584;-63
2022/11/10 05:30:50;;;;;;;11.90;5.25;;;10.20;99.90;;;;;;4993658;28;20805;-63
2022/11/10 05:33:18;;;;;;;13.02;5.70;;;10.20;99.90;;;;;;5007418;28;20223;-64
2022/11/10 05:35:45;;;;;;;10.80;6.07;;;10.20;99.90;;;;;;5011813;28;20205;-63
2022/11/10 05:38:12;;;;;;;19.35;6.43;;;10.20;99.90;;;;;;5003237;28;20221;-63
2022/11/10 05:40:38;;;;;;;12.07;5.55;;;10.20;99.90;;;;;;4982769;28;20232;-63
2022/11/10 05:43:07;;;;;;;10.98;6.38;;;10.20;99.90;;;;;;5010822;28;20226;-64
2022/11/10 05:45:33;;;;;;;12.45;6.35;;;10.20;99.90;;;;;;4980785;28;21312;-64
2022/11/10 05:48:00;;;;;;;14.68;6.18;;;10.20;99.90;;;;;;4994761;28;20217;-64
2022/11/10 05:50:27;;;;;;;18.10;5.82;;;10.20;99.90;;;;;;4971996;28;20237;-64
2022/11/10 05:52:55;;;;;;;12.60;5.93;;;10.20;99.90;;;;;;4992828;28;20220;-63
2022/11/10 05:55:24;;;;;;;9.70;6.00;;;10.20;99.90;;;;;;4998458;28;20936;-63
2022/11/10 05:57:53;;;;;;;11.70;6.70;;;10.20;99.90;;;;;;5007007;28;20225;-63
2022/11/10 06:00:23;;;;;;;16.20;6.32;;;10.20;99.90;;;;;;4988443;28;20217;-63
2022/11/10 06:02:58;;;;;;;13.02;6.13;;;10.20;99.90;;;;;;5009896;28;20340;-63
2022/11/10 06:05:25;;;;;;;16.95;6.50;;;10.10;99.90;;;;;;4994813;28;20232;-63
2022/11/10 06:07:52;;;;;;;13.10;6.40;;;10.10;99.90;;;;;;5005413;28;20232;-63
2022/11/10 06:10:19;;;;;;;15.95;7.25;;;10.10;99.90;;;;;;4991473;28;20271;-63
2022/11/10 06:12:46;;;;;;;11.90;6.63;;;10.20;99.90;;;;;;5015971;28;20884;-63
2022/11/10 06:15:14;;;;;;;13.00;6.65;;;10.20;99.90;;;;;;4996011;28;20655;-64
2022/11/10 06:17:43;;;;;;;11.77;7.25;;;10.10;99.90;;;;;;5006690;28;20216;-64
2022/11/10 06:20:11;;;;;;;11.52;6.90;;;10.20;99.90;;;;;;4986150;28;20224;-64
2022/11/10 06:22:37;;;;;;;11.57;7.15;;;10.20;99.90;;;;;;5018985;28;20205;-64
2022/11/10 06:25:05;;;;;;;16.48;7.35;;;10.20;99.90;;;;;;5028811;28;20196;-64
2022/11/10 06:27:32;;;;;;;15.82;7.32;;;10.20;99.90;;;;;;5012327;28;20201;-63
2022/11/10 06:29:59;;;;;;;18.42;7.95;;;10.20;99.90;;;;;;5007232;28;20202;-63
2022/11/10 06:32:25;;;;;;;14.88;7.18;;;10.10;99.90;;;;;;5014045;28;20206;-64
2022/11/10 06:34:54;;;;;;;18.63;8.02;;;10.20;99.90;;;;;;5022525;28;20198;-63
2022/11/10 06:37:20;;;;;;;13.85;8.02;;;10.20;99.90;;;;;;5014949;28;20407;-63
2022/11/10 06:39:47;;;;;;;13.95;8.75;;;10.20;99.90;;;;;;5031010;28;20225;-63
2022/11/10 06:42:14;;;;;;;17.52;7.72;;;10.20;99.90;;;;;;5015724;28;20701;-63
2022/11/10 06:44:41;;;;;;;22.02;8.35;;;10.20;99.90;;;;;;5023647;28;20206;-64
2022/11/10 06:47:07;;;;;;;15.35;8.23;;;10.30;99.90;;;;;;5001609;28;20225;-63
2022/11/10 06:49:34;;;;;;;13.95;9.20;;;10.30;99.90;;;;;;5030501;28;20193;-64
2022/11/10 06:52:02;;;;;;;20.67;8.88;;;10.30;99.90;;;;;;4996740;28;20694;-64
2022/11/10 06:54:29;;;;;;;17.15;8.55;;;10.30;99.90;;;;;;5030129;28;20198;-63
2022/11/10 06:56:56;;;;;;;13.82;8.10;;;10.30;99.90;;;;;;5026093;28;20209;-63
2022/11/10 06:59:23;;;;;;;19.13;8.85;;;10.40;99.90;;;;;;5006697;28;20205;-63
2022/11/10 07:01:49;;;;;;;21.30;9.85;;;10.40;99.90;;;;;;5012868;28;20291;-64
2022/11/10 07:04:16;;;;;;;17.13;9.25;;;10.40;99.90;;;;;;5024646;28;20429;-64
2022/11/10 07:06:43;;;;;;;18.92;9.60;;;10.50;99.90;;;;;;4976212;28;20727;-67
2022/11/10 07:09:11;;;;;;;27.98;10.40;;;10.50;99.90;;;;;;5020770;28;20212;-64
2022/11/10 07:11:38;;;;;;;21.13;11.68;;;10.50;99.90;;;;;;5017838;28;20403;-66
2022/11/10 07:14:05;;;;;;;20.70;10.40;;;10.60;99.90;;;;;;5013845;28;20206;-64
2022/11/10 07:16:32;;;;;;;23.75;10.23;;;10.60;99.90;;;;;;5005612;28;20229;-64
2022/11/10 07:18:58;;;;;;;20.08;10.32;;;10.60;99.90;;;;;;5021370;28;20204;-64
2022/11/10 07:21:25;;;;;;;21.33;11.23;;;10.60;99.90;;;;;;4997011;28;20197;-64
2022/11/10 07:23:52;;;;;;;23.65;10.77;;;10.70;99.90;;;;;;5016143;28;20313;-64
2022/11/10 07:26:20;;;;;;;21.00;10.50;;;10.70;99.90;;;;;;5012871;28;21022;-65
2022/11/10 07:28:47;;;;;;;21.52;11.43;;;10.80;99.90;;;;;;5018121;28;20291;-63
2022/11/10 07:31:14;;;;;;;19.33;10.10;;;10.80;99.90;;;;;;4999108;28;20208;-64
2022/11/10 07:33:42;;;;;;;19.95;10.43;;;10.90;99.90;;;;;;4992854;28;20927;-64
2022/11/10 07:36:09;;;;;;;17.95;9.90;;;10.90;99.90;;;;;;5021796;28;20818;-64
2022/11/10 07:38:36;;;;;;;18.38;9.63;;;10.90;99.90;;;;;;4983055;28;20206;-64
2022/11/10 07:41:03;;;;;;;19.10;10.43;;;11.00;99.90;;;;;;5004277;28;20926;-65
2022/11/10 07:43:31;;;;;;;15.82;9.60;;;11.00;99.90;;;;;;5022412;28;20653;-64
2022/11/10 07:45:58;;;;;;;23.50;10.48;;;11.00;99.90;;;;;;4996868;28;20225;-64
2022/11/10 07:48:25;;;;;;;17.90;10.82;;;11.00;99.90;;;;;;5012078;28;20574;-64
2022/11/10 07:50:52;;;;;;;18.25;9.85;;;11.10;99.90;;;;;;5017380;28;20193;-64
2022/11/10 07:53:20;;;;;;;17.17;9.07;;;11.10;99.90;;;;;;4979265;28;20209;-64
2022/11/10 07:55:47;;;;;;;15.95;9.80;;;11.10;99.90;;;;;;5019104;28;20198;-64
2022/11/10 07:58:16;;;;;;;23.88;10.73;;;11.10;99.90;;;;;;5017712;28;20201;-64
2022/11/10 08:00:45;;;;;;;17.65;10.05;;;11.10;99.90;;;;;;5011383;28;20197;-64
2022/11/10 08:03:14;;;;;;;22.10;10.15;;;11.10;99.90;;;;;;4992805;28;20201;-65
2022/11/10 08:05:41;;;;;;;22.23;11.73;;;11.10;99.90;;;;;;5017051;28;20193;-64
2022/11/10 08:08:08;;;;;;;21.67;11.18;;;11.10;99.90;;;;;;4983361;28;21406;-65
2022/11/10 08:10:35;;;;;;;31.85;15.40;;;11.10;99.90;;;;;;5020353;28;20233;-64
2022/11/10 08:13:05;;;;;;;29.20;13.98;;;11.10;99.90;;;;;;5017496;28;20748;-64
2022/11/10 08:15:33;;;;;;;31.88;15.00;;;11.10;99.90;;;;;;5020247;28;20237;-66
2022/11/10 08:18:02;;;;;;;29.00;13.02;;;11.10;99.90;;;;;;4992149;28;21387;-64
2022/11/10 08:20:29;;;;;;;20.05;11.25;;;11.20;99.90;;;;;;5022582;28;20190;-64
2022/11/10 08:23:00;;;;;;;21.75;11.07;;;11.20;99.90;;;;;;4993404;28;20224;-66
2022/11/10 08:25:27;;;;;;;19.38;11.52;;;11.20;99.90;;;;;;4995652;28;20234;-65
2022/11/10 08:27:58;;;;;;;21.95;10.93;;;11.20;99.90;;;;;;5016803;28;20678;-65
2022/11/10 08:30:26;;;;;;;21.65;10.57;;;11.20;99.90;;;;;;5023152;28;20598;-64
2022/11/10 08:32:57;;;;;;;26.30;10.55;;;11.20;99.90;;;;;;5002541;28;20201;-66
2022/11/10 08:35:26;;;;;;;19.10;11.32;;;11.20;99.90;;;;;;5010332;28;20199;-64
2022/11/10 08:37:53;;;;;;;19.42;10.48;;;11.20;99.90;;;;;;5017929;28;20216;-65
2022/11/10 08:40:21;;;;;;;22.73;10.82;;;11.20;99.90;;;;;;4984399;28;20284;-65
2022/11/10 08:42:48;;;;;;;23.10;9.90;;;11.20;99.90;;;;;;5018494;28;20200;-64
2022/11/10 08:45:15;;;;;;;20.83;10.95;;;11.30;99.90;;;;;;5024286;28;20534;-63
2022/11/10 08:47:43;;;;;;;27.23;11.20;;;11.30;99.90;;;;;;5014084;28;20217;-64
2022/11/10 08:50:10;;;;;;;22.55;10.43;;;11.40;99.90;;;;;;4996335;28;20586;-63
2022/11/10 08:52:38;;;;;;;23.05;10.68;;;11.40;99.90;;;;;;5023925;28;20198;-64
2022/11/10 08:55:06;;;;;;;23.05;10.90;;;11.50;99.90;;;;;;4983083;28;20749;-64
2022/11/10 08:57:32;;;;;;;24.17;10.65;;;11.50;99.90;;;;;;5020437;28;20198;-64
2022/11/10 08:59:59;;;;;;;19.55;11.05;;;11.50;99.90;;;;;;5021745;28;20204;-65
2022/11/10 09:02:26;;;;;;;17.15;10.32;;;11.40;99.90;;;;;;5030659;28;20198;-64
2022/11/10 09:04:53;;;;;;;22.85;9.45;;;11.50;99.90;;;;;;5012085;28;20209;-65
2022/11/10 09:07:20;;;;;;;18.83;11.07;;;11.50;99.90;;;;;;5011873;28;20228;-64
2022/11/10 09:09:48;;;;;;;23.50;10.32;;;11.50;99.90;;;;;;5008251;28;20194;-64
2022/11/10 09:12:15;;;;;;;21.15;10.23;;;11.50;99.90;;;;;;5012217;28;20216;-64
2022/11/10 09:14:42;;;;;;;20.88;9.57;;;11.50;99.90;;;;;;5021284;28;20193;-64
2022/11/10 09:17:10;;;;;;;15.60;9.70;;;11.50;99.90;;;;;;5021777;28;20727;-67
2022/11/10 09:19:37;;;;;;;19.52;10.10;;;11.60;99.90;;;;;;5016357;28;20197;-64
2022/11/10 09:22:04;;;;;;;17.70;9.55;;;11.60;99.90;;;;;;5012939;28;20206;-68
2022/11/10 09:24:31;;;;;;;22.80;8.90;;;11.70;99.90;;;;;;5025689;28;20202;-66
2022/11/10 09:26:59;;;;;;;20.98;9.05;;;11.70;99.90;;;;;;4984861;28;20746;-64
2022/11/10 09:29:26;;;;;;;21.92;9.32;;;11.70;99.90;;;;;;5025926;28;20212;-64
2022/11/10 09:31:53;;;;;;;19.50;9.13;;;11.70;99.90;;;;;;5021674;28;20643;-65
2022/11/10 09:34:20;;;;;;;16.95;8.98;;;11.70;99.90;;;;;;5010499;28;20233;-64
2022/11/10 09:36:46;;;;;;;15.32;9.00;;;12.00;99.90;;;;;;4999074;28;20846;-64
2022/11/10 09:39:14;;;;;;;17.33;8.65;;;11.90;99.90;;;;;;5003654;28;20244;-64
2022/11/10 09:41:43;;;;;;;17.10;8.80;;;12.00;99.90;;;;;;4986964;28;20222;-64
2022/11/10 09:44:17;;;;;;;21.20;8.45;;;12.10;99.90;;;;;;5024735;28;20574;-65
2022/11/10 09:46:47;;;;;;;13.88;7.75;;;12.10;99.90;;;;;;5024160;28;20233;-64
2022/11/10 09:49:27;;;;;;;14.30;7.82;;;12.20;99.90;;;;;;5024303;28;20201;-64
2022/11/10 09:51:55;;;;;;;15.55;7.80;;;12.30;99.90;;;;;;5014157;28;20189;-65
2022/11/10 09:54:34;;;;;;;15.90;7.93;;;12.40;99.90;;;;;;5011373;28;20204;-64
2022/11/10 09:57:03;;;;;;;18.55;7.63;;;12.40;99.90;;;;;;4989676;28;20220;-64
2022/11/10 09:59:33;;;;;;;12.85;6.97;;;12.50;99.90;;;;;;5022797;28;20197;-64
2022/11/10 10:02:03;;;;;;;15.00;7.13;;;12.50;99.90;;;;;;5028598;28;20206;-64
2022/11/10 10:04:53;;;;;;;16.50;6.93;;;12.50;99.90;;;;;;5021509;28;20206;-64
2022/11/10 10:07:25;;;;;;;16.15;6.72;;;12.50;99.90;;;;;;5014999;28;20238;-64
2022/11/10 10:10:00;;;;;;;19.27;6.45;;;12.50;99.90;;;;;;4990807;28;21060;-64
2022/11/10 10:12:53;;;;;;;12.43;6.35;;;12.60;99.90;;;;;;4971954;28;20228;-64
2022/11/10 10:15:29;;;;;;;11.68;5.95;;;12.50;99.90;;;;;;5008773;28;20221;-63
2022/11/10 10:18:09;;;;;;;16.80;5.80;;;12.50;99.90;;;;;;5011556;28;20213;-64
2022/11/10 10:20:46;;;;;;;15.93;5.82;;;12.50;99.90;;;;;;5024766;28;20706;-64
2022/11/10 10:23:22;;;;;;;16.67;5.10;;;12.50;99.90;;;;;;5010851;28;20215;-65
2022/11/10 10:25:53;;;;;;;12.43;5.65;;;12.50;99.90;;;;;;5006965;28;20217;-64
2022/11/10 10:28:28;;;;;;;14.65;5.22;;;12.40;99.90;;;;;;4985104;28;20232;-64
2022/11/10 10:31:06;;;;;;;12.63;4.78;;;12.40;99.90;;;;;;5016457;28;20201;-64
2022/11/10 10:33:33;;;;;;;18.05;6.22;;;12.50;99.90;;;;;;5007156;28;20209;-64
2022/11/10 10:36:07;;;;;;;11.05;5.15;;;12.50;99.90;;;;;;5021750;28;20202;-64
2022/11/10 10:38:39;;;;;;;20.38;5.53;;;12.50;99.90;;;;;;5020011;28;20221;-64
2022/11/10 10:41:13;;;;;;;13.65;5.53;;;12.50;99.90;;;;;;5016635;28;20324;-64
2022/11/10 10:43:44;;;;;;;15.20;5.43;;;12.50;99.90;;;;;;5002568;28;20221;-64
2022/11/10 10:46:15;;;;;;;12.88;5.47;;;12.60;99.90;;;;;;5029835;28;20215;-64
2022/11/10 10:48:42;;;;;;;13.02;5.13;;;12.60;99.90;;;;;;5014103;28;20206;-65
2022/11/10 10:51:09;;;;;;;10.75;4.28;;;12.60;99.90;;;;;;5029822;28;20814;-64
2022/11/10 10:53:46;;;;;;;14.88;5.72;;;12.60;99.90;;;;;;5010271;28;20226;-64
2022/11/10 10:56:18;;;;;;;15.98;5.22;;;12.70;99.90;;;;;;5011604;28;20233;-64
2022/11/10 10:58:52;;;;;;;14.57;5.82;;;12.70;99.90;;;;;;5001290;28;20634;-64
2022/11/10 11:01:28;;;;;;;12.82;5.00;;;12.70;99.90;;;;;;5015594;28;20212;-65
2022/11/10 11:03:54;;;;;;;10.75;5.10;;;12.70;99.90;;;;;;5017351;28;20206;-64
2022/11/10 11:06:24;;;;;;;12.70;5.13;;;12.80;99.90;;;;;;5027367;28;20198;-64
2022/11/10 11:08:56;;;;;;;18.92;5.93;;;12.80;99.90;;;;;;5013211;28;20209;-64
2022/11/10 11:11:26;;;;;;;17.73;5.47;;;12.90;99.90;;;;;;5009758;28;20205;-64
2022/11/10 11:13:53;;;;;;;13.95;5.65;;;12.90;99.90;;;;;;5002838;28;20218;-64
2022/11/10 11:16:21;;;;;;;7.03;4.50;;;13.00;99.90;;;;;;5023331;28;20230;-64
2022/11/10 11:18:48;;;;;;;16.98;4.90;;;13.00;99.90;;;;;;5026340;28;20206;-63
2022/11/10 11:21:27;;;;;;;9.73;4.43;;;13.00;99.90;;;;;;5017302;28;20206;-64
2022/11/10 11:24:10;;;;;;;12.68;4.50;;;13.00;99.90;;;;;;5004419;28;20198;-65
2022/11/10 11:26:47;;;;;;;16.52;4.57;;;13.00;99.90;;;;;;5014025;28;21057;-66
2022/11/10 11:29:26;;;;;;;12.55;4.43;;;13.10;99.90;;;;;;5021893;28;20201;-65
2022/11/10 11:32:14;;;;;;;11.52;3.85;;;13.10;99.90;;;;;;5033955;28;20573;-65
2022/11/10 11:34:50;;;;;;;9.38;4.00;;;13.20;99.90;;;;;;5027452;28;20224;-65
2022/11/10 11:37:22;;;;;;;9.30;3.78;;;13.10;99.90;;;;;;5011311;28;20201;-66
2022/11/10 11:40:05;;;;;;;13.15;3.95;;;13.10;99.90;;;;;;5014493;28;20209;-65
2022/11/10 11:42:47;;;;;;;14.63;3.90;;;13.10;99.90;;;;;;5010226;28;20992;-65
2022/11/10 11:45:20;;;;;;;12.55;3.97;;;13.10;99.90;;;;;;5010158;28;20664;-65
2022/11/10 11:48:07;;;;;;;16.98;3.88;;;13.20;99.90;;;;;;5016880;28;20225;-65
2022/11/10 11:50:41;;;;;;;10.43;3.45;;;13.20;99.90;;;;;;5005044;28;20640;-65
2022/11/10 11:53:24;;;;;;;10.65;3.47;;;13.20;99.90;;;;;;5026908;28;20920;-65
2022/11/10 11:56:03;;;;;;;8.90;3.10;;;13.20;99.90;;;;;;5003019;28;20200;-65
2022/11/10 11:58:43;;;;;;;19.83;3.63;;;13.20;99.90;;;;;;5009518;28;20737;-65
2022/11/10 12:01:26;;;;;;;6.45;2.70;;;13.20;99.90;;;;;;5023595;28;20225;-64
2022/11/10 12:04:20;;;;;;;14.85;3.25;;;13.30;99.90;;;;;;5018027;28;24131;-65
2022/11/10 12:06:58;;;;;;;11.43;3.08;;;13.20;99.90;;;;;;5008821;28;20205;-62
2022/11/10 12:09:36;;;;;;;10.70;3.17;;;13.30;99.90;;;;;;5021804;28;20212;-63
2022/11/10 12:12:19;;;;;;;11.65;3.08;;;13.30;99.90;;;;;;5017695;28;20231;-63
2022/11/10 12:14:56;;;;;;;10.57;2.80;;;13.30;99.90;;;;;;5020947;28;20240;-63
2022/11/10 12:17:35;;;;;;;10.05;3.58;;;13.30;99.90;;;;;;5006274;28;20222;-62
2022/11/10 12:20:18;;;;;;;21.65;3.88;;;13.30;99.90;;;;;;5013525;28;20236;-63
2022/11/10 12:22:54;;;;;;;7.68;2.70;;;13.30;99.90;;;;;;5015625;28;20210;-63
2022/11/10 12:25:30;;;;;;;15.43;4.13;;;13.30;99.90;;;;;;5004082;28;20322;-63
2022/11/10 12:28:09;;;;;;;12.77;2.92;;;13.50;99.90;;;;;;5014287;28;20228;-62
2022/11/10 12:30:37;;;;;;;12.45;2.83;;;13.30;99.90;;;;;;5024946;28;20288;-63
2022/11/10 12:33:12;;;;;;;22.77;3.65;;;13.30;99.90;;;;;;5028594;28;20586;-63
2022/11/10 12:35:45;;;;;;;18.33;3.40;;;13.30;99.90;;;;;;4984032;28;20209;-64
2022/11/10 12:38:17;;;;;;;12.20;2.67;;;13.40;99.90;;;;;;5015083;28;20201;-64
2022/11/10 12:40:48;;;;;;;9.95;2.88;;;13.40;99.90;;;;;;5006331;28;20714;-64
2022/11/10 12:43:25;;;;;;;11.35;2.35;;;13.40;99.90;;;;;;5019491;28;20245;-64
2022/11/10 12:45:57;;;;;;;11.88;3.10;;;13.40;99.90;;;;;;5021639;28;20226;-64
2022/11/10 12:48:26;;;;;;;13.38;2.85;;;13.40;99.90;;;;;;5022180;28;20233;-63
2022/11/10 12:51:02;;;;;;;13.13;3.65;;;13.40;99.90;;;;;;4983704;28;20218;-65
2022/11/10 12:53:31;;;;;;;10.50;2.55;;;13.50;99.90;;;;;;5006881;28;20201;-65
2022/11/10 12:56:02;;;;;;;8.45;2.85;;;13.40;99.90;;;;;;5010941;28;20221;-64
2022/11/10 12:58:29;;;;;;;9.90;3.20;;;13.40;99.90;;;;;;5023080;28;20213;-63
2022/11/10 13:00:59;;;;;;;6.93;2.33;;;13.40;99.90;;;;;;5011010;28;20205;-65
2022/11/10 13:03:28;;;;;;;12.02;2.80;;;13.40;99.90;;;;;;5024029;28;20606;-64
2022/11/10 13:05:59;;;;;;;11.75;2.65;;;13.40;99.90;;;;;;4996462;28;20210;-63
2022/11/10 13:08:31;;;;;;;6.22;2.45;;;13.50;99.90;;;;;;5014882;28;20606;-64